Red Mountain, CA (93558)

5:10 PM PDT on June 03, 2015 (GMT -0700)
RAWS | | Change Station
CLOSE
Current Station
Personal Weather Station
Location: Red Mountain, CA
Elevation: 3661 ft
Nearby Weather Stations

Elev 3661 ft 35.37 °N, 117.57 °W | Updated 1 hour ago

Clear
Clear
84 °F
Feels Like 81 °F
N
9
Wind Variable Wind from SSW
Gusts 21.0 mph

Today
High -- | Low -- °F
--% Chance of Precip.
Yesterday
High -- | Low -- °F
Precip. -- in
5:36 AM 8:01 PM
Full, 98% visible
Pressure 29.62 in
Visibility 10.0 miles
Clouds Scattered Clouds 28000 ft
Heat Index 81 °F
Dew Point 37 °F
Humidity 19%
Rainfall in
Snow Depth Not available.
UV 3 out of 12
Pollen 5.60 out of 12
Air Quality Not available.
Flu Activity Sporadic
METAR KNID 032356Z 23014G23KT 10SM SCT280 32/01 A2968 RMK AO2 PK WND 18026/2325 SLP030 T03220006 10339 20272 56023

More Conditions Fewer Conditions

Pressure 29.62 in
Visibility 10.0 miles
Clouds Scattered Clouds 28000 ft
Heat Index 81 °F
Dew Point 37 °F
Humidity 19%
Rainfall in
Snow Depth Not available.
UV 3 out of 12
Pollen 5.60 out of 12
Air Quality Not available.
Flu Activity Sporadic
METAR KNID 032356Z 23014G23KT 10SM SCT280 32/01 A2968 RMK AO2 PK WND 18026/2325 SLP030 T03220006 10339 20272 56023

More Conditions Fewer Conditions

10-Day Weather Forecast

×

Almanac

Astronomy

Jun. 03, 2015 Rise Set
Actual Time
Civil Twilight
Nautical Twilight
Astronomical Twilight
Moon
Length of Visible Light
Length of Day
Tomorrow will be .
, % of the Moon is Illuminated

Today's Extremes

State Highs State Lows

Community

WunderPhotos

Upload Photos

1,826,310 photos uploaded!

WunderBlogs® & News

Nearby

Air Quality

  Air Quality AQ Index Pollutant
Not available.

Snow Depth

Station Depth Elevation

Earthquake Activity

City Distance Mag. Time & Date
Minimum magnitude displayed is 2.5.

Coastal Water Temperatures

Place Temperature

Stations

Nearby Weather Stations

Station Location Temp. Windchill Dew Point Humidity Wind Precip. Elev Updated Type